createdAt,value
2022-08-28T00:00:16.247Z,2.90
2022-08-28T00:04:00.141Z,2.33
2022-08-28T00:07:46.977Z,2.75
2022-08-28T00:11:29.681Z,2.67
2022-08-28T00:15:16.299Z,3.00
2022-08-28T00:18:58.296Z,2.90
2022-08-28T00:22:40.576Z,2.30
2022-08-28T00:26:41.670Z,3.10
2022-08-28T00:30:25.201Z,3.58
2022-08-28T00:34:09.504Z,3.85
2022-08-28T00:37:52.760Z,3.45
2022-08-28T00:41:36.446Z,3.43
2022-08-28T00:45:19.742Z,3.40
2022-08-28T00:49:01.697Z,3.55
2022-08-28T00:52:46.670Z,3.27
2022-08-28T00:56:30.417Z,3.28
2022-08-28T01:00:17.298Z,3.42
2022-08-28T01:03:59.225Z,3.55
2022-08-28T01:07:42.053Z,3.30
2022-08-28T01:11:24.367Z,3.47
2022-08-28T01:15:13.449Z,3.45
2022-08-28T01:18:57.485Z,3.50
2022-08-28T01:23:07.140Z,3.65
2022-08-28T01:26:49.217Z,3.70
2022-08-28T01:30:32.502Z,4.10
2022-08-28T01:34:14.982Z,4.10
2022-08-28T01:37:57.407Z,3.92
2022-08-28T01:41:48.181Z,3.83
2022-08-28T01:45:31.461Z,3.85
2022-08-28T01:49:13.825Z,3.95
2022-08-28T01:52:55.787Z,4.40
2022-08-28T01:56:39.111Z,4.87
2022-08-28T02:00:26.957Z,4.78
2022-08-28T02:04:09.515Z,4.70
2022-08-28T02:07:52.616Z,4.17
2022-08-28T02:11:35.108Z,4.95
2022-08-28T02:15:17.366Z,6.03
2022-08-28T02:19:01.440Z,5.85
2022-08-28T02:22:43.341Z,7.07
2022-08-28T02:26:25.448Z,7.25
2022-08-28T02:30:09.973Z,7.90
2022-08-28T02:33:52.008Z,8.57
2022-08-28T02:37:33.888Z,8.25
2022-08-28T02:41:15.926Z,9.85
2022-08-28T02:44:59.573Z,10.00
2022-08-28T02:48:41.561Z,9.07
2022-08-28T02:52:24.646Z,10.18
2022-08-28T02:56:07.410Z,10.00
2022-08-28T02:59:49.387Z,10.15
2022-08-28T03:03:32.646Z,10.07
2022-08-28T03:07:15.642Z,10.68
2022-08-28T03:10:58.047Z,10.67
2022-08-28T03:14:40.528Z,10.93
2022-08-28T03:18:22.639Z,10.13
2022-08-28T03:22:04.580Z,10.27
2022-08-28T03:25:46.619Z,10.52
2022-08-28T03:29:28.553Z,10.48
2022-08-28T03:33:10.682Z,10.70
2022-08-28T03:36:52.549Z,10.75
2022-08-28T03:40:38.652Z,11.23
2022-08-28T03:44:20.562Z,11.93
2022-08-28T03:48:04.322Z,11.33
2022-08-28T03:51:46.409Z,12.20
2022-08-28T03:55:28.977Z,11.10
2022-08-28T03:59:10.886Z,11.50
2022-08-28T04:02:53.602Z,10.80
2022-08-28T04:06:36.144Z,11.45
2022-08-28T04:10:18.298Z,10.32
2022-08-28T04:14:00.163Z,9.65
2022-08-28T04:17:42.068Z,10.13
2022-08-28T04:21:26.238Z,9.90
2022-08-28T04:25:08.962Z,9.93
2022-08-28T04:28:54.792Z,8.93
2022-08-28T04:32:38.719Z,9.30
2022-08-28T04:36:20.592Z,8.67
2022-08-28T04:40:08.722Z,8.45
2022-08-28T04:43:52.802Z,8.85
2022-08-28T04:47:39.075Z,9.00
2022-08-28T04:51:21.075Z,8.25
2022-08-28T04:55:03.904Z,8.02
2022-08-28T04:58:46.085Z,7.63
2022-08-28T05:02:27.991Z,8.47
2022-08-28T05:06:12.279Z,7.68
2022-08-28T05:09:54.717Z,7.03
2022-08-28T05:13:37.375Z,7.43
2022-08-28T05:17:19.272Z,5.85
2022-08-28T05:21:01.932Z,7.50
2022-08-28T05:24:44.551Z,8.82
2022-08-28T05:28:26.603Z,6.97
2022-08-28T05:32:09.502Z,8.63
2022-08-28T05:35:51.375Z,8.23
2022-08-28T05:39:33.326Z,8.33
2022-08-28T05:43:16.785Z,8.57
2022-08-28T05:46:58.694Z,7.72
2022-08-28T05:50:43.047Z,7.87
2022-08-28T05:54:29.430Z,7.47
2022-08-28T05:58:29.119Z,7.43
2022-08-28T06:02:11.337Z,7.00
2022-08-28T06:05:56.376Z,6.07
2022-08-28T06:09:38.524Z,5.97
2022-08-28T06:13:20.617Z,6.00
2022-08-28T06:17:04.033Z,4.77
2022-08-28T06:21:05.163Z,4.88
2022-08-28T06:24:47.076Z,4.75
2022-08-28T06:28:29.026Z,4.60
2022-08-28T06:32:22.954Z,4.28
2022-08-28T06:40:16.394Z,3.53
2022-08-28T06:44:44.096Z,4.05
2022-08-28T06:52:39.348Z,2.72
2022-08-28T06:57:21.045Z,3.33
2022-08-28T07:01:37.772Z,2.50
2022-08-28T07:05:19.916Z,2.53
2022-08-28T07:09:34.767Z,2.53
2022-08-28T07:13:40.855Z,2.45
2022-08-28T07:22:07.445Z,2.47
2022-08-28T07:26:26.329Z,2.40
2022-08-28T07:34:19.693Z,2.40
2022-08-28T07:46:44.562Z,2.70
2022-08-28T07:54:40.507Z,2.38
2022-08-28T07:59:04.352Z,2.20
2022-08-28T08:02:46.526Z,2.10
2022-08-28T08:07:13.220Z,3.05
2022-08-28T08:11:27.997Z,2.10
2022-08-28T08:19:34.855Z,2.30
2022-08-28T08:23:51.950Z,2.35
2022-08-28T08:31:47.333Z,2.33
2022-08-28T08:39:42.084Z,1.67
2022-08-28T08:44:09.949Z,1.35
2022-08-28T08:52:03.100Z,1.63
2022-08-28T08:56:34.843Z,1.90
2022-08-28T09:01:08.182Z,1.70
2022-08-28T09:05:42.619Z,1.30
2022-08-28T09:10:08.955Z,1.50
2022-08-28T09:32:41.009Z,1.05
2022-08-28T09:37:13.875Z,0.93
2022-08-28T09:41:44.040Z,1.33
2022-08-28T09:46:14.484Z,0.73
2022-08-28T09:50:44.490Z,1.85
2022-08-28T10:04:22.527Z,1.05
2022-08-28T10:53:49.767Z,0.73
2022-08-28T11:20:50.360Z,1.20
2022-08-28T11:37:57.231Z,0.90
2022-08-28T11:46:55.393Z,1.13
2022-08-28T11:51:16.563Z,0.93
2022-08-28T11:55:46.500Z,0.52
2022-08-28T12:17:20.337Z,0.60
2022-08-28T12:47:47.439Z,0.80
2022-08-28T12:52:04.103Z,0.85
2022-08-28T13:09:03.506Z,0.73
2022-08-28T13:17:59.760Z,0.52
2022-08-28T13:26:58.774Z,0.50
2022-08-28T13:35:58.853Z,1.15
2022-08-28T13:44:59.863Z,0.70
2022-08-28T13:54:00.880Z,0.80
2022-08-28T13:58:32.873Z,0.90
2022-08-28T14:03:02.924Z,0.70
2022-08-28T14:12:03.947Z,0.70
2022-08-28T14:16:37.853Z,0.90
2022-08-28T14:34:47.709Z,0.93
2022-08-28T14:51:27.199Z,0.82
2022-08-28T15:00:30.066Z,0.60
2022-08-28T15:14:01.189Z,0.65
2022-08-28T15:18:31.124Z,0.80
2022-08-28T15:27:31.186Z,0.90
2022-08-28T15:32:02.220Z,0.70
2022-08-28T15:36:32.176Z,0.80
2022-08-28T15:41:03.222Z,0.60
2022-08-28T15:45:33.438Z,0.88
2022-08-28T15:50:03.242Z,0.70
2022-08-28T15:54:34.298Z,0.80
2022-08-28T15:59:04.269Z,1.40
2022-08-28T16:03:34.275Z,1.15
2022-08-28T16:08:05.290Z,0.98
2022-08-28T16:20:26.691Z,0.80
2022-08-28T16:32:49.670Z,0.95
2022-08-28T16:40:47.136Z,1.00
2022-08-28T16:45:13.660Z,0.80
2022-08-28T16:49:45.726Z,0.70
2022-08-28T16:54:15.707Z,0.80
2022-08-28T16:58:45.788Z,0.95
2022-08-28T17:07:45.901Z,1.00
2022-08-28T17:30:22.672Z,1.13
2022-08-28T17:34:49.850Z,0.90
2022-08-28T17:39:20.064Z,1.00
2022-08-28T17:43:49.891Z,0.80
2022-08-28T17:52:50.099Z,0.90
2022-08-28T17:57:19.349Z,1.42
2022-08-28T18:06:20.035Z,0.80
2022-08-28T18:15:22.461Z,0.70
2022-08-28T18:28:53.154Z,0.93
2022-08-28T18:33:23.032Z,1.00
2022-08-28T18:42:01.208Z,1.60
2022-08-28T18:45:47.526Z,1.80
2022-08-28T18:49:51.357Z,1.80
2022-08-28T18:53:42.353Z,2.10
2022-08-28T18:57:45.594Z,2.03
2022-08-28T19:01:29.536Z,1.70
2022-08-28T19:05:12.758Z,1.65
2022-08-28T19:08:54.675Z,1.58
2022-08-28T19:12:37.361Z,1.40
2022-08-28T19:16:20.621Z,1.17
2022-08-28T19:20:09.672Z,1.40
2022-08-28T19:23:56.036Z,1.58
2022-08-28T19:27:39.562Z,1.80
2022-08-28T19:31:23.229Z,1.60
2022-08-28T19:35:05.635Z,2.30
2022-08-28T19:38:47.949Z,2.10
2022-08-28T19:42:29.883Z,3.50
2022-08-28T19:46:19.274Z,1.50
2022-08-28T19:50:02.262Z,1.40
2022-08-28T19:53:44.154Z,1.10
2022-08-28T19:57:26.290Z,1.27
2022-08-28T20:01:08.233Z,1.30
2022-08-28T20:04:50.270Z,1.45
2022-08-28T20:08:32.714Z,1.50
2022-08-28T20:12:14.791Z,1.30
2022-08-28T20:15:56.836Z,1.40
2022-08-28T20:19:38.793Z,1.13
2022-08-28T20:23:20.708Z,1.13
2022-08-28T20:27:03.106Z,0.93
2022-08-28T20:30:46.878Z,1.05
2022-08-28T20:34:29.035Z,0.93
2022-08-28T20:38:11.500Z,1.17
2022-08-28T20:41:53.524Z,1.10
2022-08-28T20:45:35.390Z,1.08
2022-08-28T20:49:17.459Z,1.08
2022-08-28T20:53:02.662Z,1.30
2022-08-28T20:56:44.538Z,1.00
2022-08-28T21:00:26.628Z,1.00
2022-08-28T21:04:08.791Z,1.20
2022-08-28T21:07:51.060Z,1.27
2022-08-28T21:11:32.971Z,1.30
2022-08-28T21:15:14.909Z,1.55
2022-08-28T21:19:15.118Z,1.27
2022-08-28T21:22:58.220Z,1.13
2022-08-28T21:26:45.289Z,1.67
2022-08-28T21:30:29.524Z,1.40
2022-08-28T21:34:12.297Z,1.58
2022-08-28T21:37:54.183Z,1.90
2022-08-28T21:41:36.699Z,1.57
2022-08-28T21:45:18.605Z,2.03
2022-08-28T21:49:01.127Z,1.58
2022-08-28T21:52:43.218Z,1.40
2022-08-28T21:56:27.865Z,1.65
2022-08-28T22:00:15.895Z,1.70
2022-08-28T22:03:57.865Z,1.50
2022-08-28T22:07:40.504Z,1.40
2022-08-28T22:11:25.132Z,1.50
2022-08-28T22:15:07.608Z,1.45
2022-08-28T22:18:49.591Z,1.77
2022-08-28T22:22:50.232Z,1.70
2022-08-28T22:26:32.229Z,1.60
2022-08-28T22:30:14.494Z,1.92
2022-08-28T22:33:56.643Z,2.20
2022-08-28T22:37:38.619Z,1.73
2022-08-28T22:41:21.389Z,1.90
2022-08-28T22:45:06.880Z,2.17
2022-08-28T22:48:49.155Z,2.13
2022-08-28T22:52:31.556Z,1.80
2022-08-28T22:56:14.790Z,1.53
2022-08-28T23:00:01.417Z,1.40
2022-08-28T23:03:43.746Z,1.70
2022-08-28T23:07:25.670Z,1.35
2022-08-28T23:11:08.386Z,1.27
2022-08-28T23:14:50.691Z,1.30
2022-08-28T23:18:46.352Z,1.23
2022-08-28T23:22:34.984Z,1.40
2022-08-28T23:26:17.032Z,1.05
2022-08-28T23:29:58.909Z,1.00
2022-08-28T23:33:41.333Z,1.20
2022-08-28T23:37:23.280Z,1.10
2022-08-28T23:41:05.485Z,1.10
2022-08-28T23:44:47.367Z,1.05
2022-08-28T23:48:29.943Z,0.93
2022-08-28T23:52:12.184Z,1.00
2022-08-28T23:55:54.216Z,1.00
2022-08-28T23:59:37.138Z,1.03
